createdAt,value
2022-10-30T00:00:45.387Z,14.82
2022-10-30T00:03:13.191Z,16.70
2022-10-30T00:05:44.694Z,21.67
2022-10-30T00:08:13.014Z,15.50
2022-10-30T00:10:40.296Z,14.85
2022-10-30T00:13:07.020Z,20.50
2022-10-30T00:15:34.142Z,16.40
2022-10-30T00:18:01.222Z,17.05
2022-10-30T00:20:28.322Z,17.67
2022-10-30T00:22:55.221Z,19.25
2022-10-30T00:25:22.313Z,17.25
2022-10-30T00:27:49.014Z,19.85
2022-10-30T00:30:16.368Z,18.83
2022-10-30T00:32:43.848Z,20.30
2022-10-30T00:35:11.326Z,17.83
2022-10-30T00:37:39.097Z,20.42
2022-10-30T00:42:33.398Z,15.18
2022-10-30T00:45:00.056Z,15.82
2022-10-30T00:47:28.885Z,14.13
2022-10-30T00:50:28.401Z,18.88
2022-10-30T00:53:03.646Z,16.98
2022-10-30T00:55:39.953Z,19.17
2022-10-30T00:58:10.717Z,18.88
2022-10-30T01:00:41.662Z,17.98
2022-10-30T01:03:08.986Z,18.80
2022-10-30T01:05:36.389Z,19.50
2022-10-30T01:08:03.947Z,23.00
2022-10-30T01:10:30.721Z,17.45
2022-10-30T01:15:38.099Z,17.58
2022-10-30T01:18:28.388Z,19.15
2022-10-30T01:21:30.203Z,19.70
2022-10-30T01:24:34.989Z,16.63
2022-10-30T01:27:33.785Z,22.02
2022-10-30T01:30:15.062Z,16.45
2022-10-30T01:33:04.824Z,16.10
2022-10-30T01:35:44.090Z,16.35
2022-10-30T01:38:31.496Z,20.00
2022-10-30T01:40:58.202Z,19.33
2022-10-30T01:43:26.091Z,20.20
2022-10-30T01:46:10.058Z,15.43
2022-10-30T01:48:54.740Z,20.23
2022-10-30T01:51:58.649Z,18.35
2022-10-30T01:54:53.439Z,17.63
2022-10-30T01:57:47.200Z,18.33
2022-10-30T02:00:16.748Z,20.42
2022-10-30T02:02:49.766Z,21.42
2022-10-30T02:05:42.236Z,23.42
2022-10-30T02:08:10.171Z,21.95
2022-10-30T02:10:41.164Z,18.52
2022-10-30T02:13:07.819Z,16.20
2022-10-30T02:18:01.915Z,17.90
2022-10-30T02:20:29.174Z,22.55
2022-10-30T02:22:59.115Z,15.63
2022-10-30T02:25:31.031Z,18.63
2022-10-30T02:27:59.162Z,17.27
2022-10-30T02:30:27.871Z,19.23
2022-10-30T02:32:54.642Z,21.13
2022-10-30T02:35:21.516Z,17.65
2022-10-30T02:40:15.615Z,19.35
2022-10-30T02:45:09.570Z,19.20
2022-10-30T02:47:36.212Z,21.17
2022-10-30T02:50:02.881Z,15.80
2022-10-30T02:52:30.605Z,18.67
2022-10-30T02:54:57.358Z,15.52
2022-10-30T02:59:50.852Z,18.52
2022-10-30T03:02:17.607Z,16.65
2022-10-30T03:07:11.414Z,20.98
2022-10-30T03:09:38.105Z,18.15
2022-10-30T03:12:05.117Z,19.83
2022-10-30T03:14:31.840Z,21.08
2022-10-30T03:16:58.478Z,18.30
2022-10-30T03:19:25.205Z,21.13
2022-10-30T03:21:54.107Z,20.73
2022-10-30T03:24:20.739Z,20.58
2022-10-30T03:26:47.987Z,16.63
2022-10-30T03:29:14.681Z,13.48
2022-10-30T03:31:41.344Z,19.58
2022-10-30T03:34:18.527Z,19.40
2022-10-30T03:36:45.190Z,17.40
2022-10-30T03:39:12.647Z,19.17
2022-10-30T03:41:43.412Z,19.85
2022-10-30T03:44:10.145Z,18.00
2022-10-30T03:46:36.966Z,19.50
2022-10-30T03:49:18.014Z,19.55
2022-10-30T03:51:44.750Z,18.85
2022-10-30T03:54:11.364Z,18.13
2022-10-30T03:56:38.582Z,17.83
2022-10-30T03:59:06.980Z,17.30
2022-10-30T04:01:38.374Z,22.70
2022-10-30T04:04:05.261Z,21.05
2022-10-30T04:06:31.961Z,22.77
2022-10-30T04:08:59.097Z,20.50
2022-10-30T04:11:26.214Z,19.00
2022-10-30T04:13:52.886Z,17.73
2022-10-30T04:16:19.520Z,20.00
2022-10-30T04:18:46.203Z,23.52
2022-10-30T04:21:13.286Z,20.48
2022-10-30T04:23:40.058Z,22.27
2022-10-30T04:26:07.886Z,22.10
2022-10-30T04:28:37.316Z,22.20
2022-10-30T04:31:04.404Z,23.40
2022-10-30T04:33:32.213Z,25.60
2022-10-30T04:36:00.002Z,23.05
2022-10-30T04:40:53.450Z,23.17
2022-10-30T04:45:51.415Z,19.92
2022-10-30T04:48:18.988Z,19.17
2022-10-30T04:50:47.384Z,19.05
2022-10-30T04:53:21.833Z,18.23
2022-10-30T04:55:55.498Z,18.45
2022-10-30T04:58:22.361Z,22.10
2022-10-30T05:01:05.205Z,17.98
2022-10-30T05:03:33.331Z,17.73
2022-10-30T05:06:07.114Z,22.02
2022-10-30T05:08:33.952Z,22.33
2022-10-30T05:11:06.511Z,19.13
2022-10-30T05:15:59.738Z,22.60
2022-10-30T05:18:26.561Z,23.55
2022-10-30T05:20:53.299Z,20.33
2022-10-30T05:23:19.961Z,22.10
2022-10-30T05:25:47.285Z,18.30
2022-10-30T05:28:16.003Z,21.83
2022-10-30T05:30:52.135Z,18.52
2022-10-30T05:33:35.716Z,25.35
2022-10-30T05:36:02.436Z,24.38
2022-10-30T05:38:29.130Z,20.38
2022-10-30T05:40:55.942Z,23.13
2022-10-30T05:43:23.118Z,22.00
2022-10-30T05:45:50.394Z,26.17
2022-10-30T05:48:18.178Z,22.05
2022-10-30T05:50:46.540Z,21.73
2022-10-30T05:53:23.635Z,20.20
2022-10-30T05:55:50.627Z,20.63
2022-10-30T05:58:21.464Z,25.30
2022-10-30T06:00:48.831Z,23.35
2022-10-30T06:03:22.964Z,20.35
2022-10-30T06:05:50.749Z,22.13
2022-10-30T06:08:18.091Z,21.42
2022-10-30T06:10:46.826Z,22.50
2022-10-30T06:13:20.859Z,22.88
2022-10-30T06:15:58.969Z,22.58
2022-10-30T06:18:33.674Z,22.98
2022-10-30T06:21:08.724Z,24.70
2022-10-30T06:24:07.914Z,18.65
2022-10-30T06:26:42.963Z,20.73
2022-10-30T06:29:13.325Z,22.10
2022-10-30T06:31:40.895Z,24.50
2022-10-30T06:34:07.594Z,19.67
2022-10-30T06:36:36.787Z,26.15
2022-10-30T06:39:04.358Z,29.90
2022-10-30T06:41:39.202Z,25.05
2022-10-30T06:44:41.119Z,20.92
2022-10-30T06:47:07.741Z,21.80
2022-10-30T06:49:34.401Z,24.20
2022-10-30T06:52:01.122Z,25.17
2022-10-30T06:54:28.275Z,24.98
2022-10-30T06:57:14.878Z,28.20
2022-10-30T07:00:11.333Z,19.52
2022-10-30T07:03:02.739Z,24.25
2022-10-30T07:05:30.155Z,23.67
2022-10-30T07:07:58.236Z,25.13
2022-10-30T07:10:25.007Z,21.73
2022-10-30T07:13:12.029Z,20.92
2022-10-30T07:15:45.048Z,22.55
2022-10-30T07:18:20.078Z,25.67
2022-10-30T07:20:47.575Z,22.15
2022-10-30T07:23:14.227Z,22.15
2022-10-30T07:28:20.983Z,22.13
2022-10-30T07:31:05.488Z,23.35
2022-10-30T07:33:47.691Z,24.48
2022-10-30T07:36:32.310Z,22.55
2022-10-30T07:39:17.722Z,21.63
2022-10-30T07:41:56.714Z,22.95
2022-10-30T07:44:42.781Z,20.10
2022-10-30T07:47:26.107Z,23.77
2022-10-30T07:50:11.377Z,22.33
2022-10-30T07:52:39.031Z,20.30
2022-10-30T07:55:06.775Z,24.92
2022-10-30T07:57:48.931Z,22.13
2022-10-30T08:00:51.127Z,24.67
2022-10-30T08:03:29.406Z,24.58
2022-10-30T08:06:03.675Z,22.63
2022-10-30T08:08:33.520Z,17.85
2022-10-30T08:11:22.746Z,22.60
2022-10-30T08:16:18.203Z,24.67
2022-10-30T08:18:45.001Z,21.63
2022-10-30T08:21:11.900Z,26.45
2022-10-30T08:23:48.333Z,24.73
2022-10-30T08:26:17.146Z,21.88
2022-10-30T08:28:43.816Z,22.60
2022-10-30T08:31:11.723Z,22.27
2022-10-30T08:34:17.274Z,20.42
2022-10-30T08:36:51.835Z,17.70
2022-10-30T08:39:19.288Z,24.27
2022-10-30T08:42:12.428Z,23.77
2022-10-30T08:44:43.603Z,19.70
2022-10-30T08:47:45.766Z,18.02
2022-10-30T08:50:13.243Z,22.40
2022-10-30T08:52:40.201Z,20.70
2022-10-30T08:55:07.842Z,20.83
2022-10-30T08:57:38.105Z,19.17
2022-10-30T09:00:06.126Z,20.90
2022-10-30T09:02:51.905Z,22.33
2022-10-30T09:05:37.561Z,24.25
2022-10-30T09:08:22.803Z,19.55
2022-10-30T09:11:04.849Z,18.52
2022-10-30T09:13:32.237Z,19.70
2022-10-30T09:16:01.504Z,21.75
2022-10-30T09:18:30.209Z,19.40
2022-10-30T09:20:57.487Z,17.67
2022-10-30T09:23:24.563Z,20.52
2022-10-30T09:26:00.268Z,19.20
2022-10-30T09:28:41.838Z,22.08
2022-10-30T09:31:27.186Z,20.38
2022-10-30T09:36:43.882Z,21.20
2022-10-30T09:39:11.274Z,19.20
2022-10-30T09:41:56.757Z,19.63
2022-10-30T09:44:26.569Z,15.52
2022-10-30T09:47:05.194Z,18.15
2022-10-30T09:50:03.334Z,17.13
2022-10-30T09:52:56.213Z,26.67
2022-10-30T09:55:34.642Z,16.60
2022-10-30T09:58:08.290Z,15.50
2022-10-30T10:00:39.127Z,20.55
2022-10-30T10:03:25.579Z,16.35
2022-10-30T10:06:19.326Z,18.45
2022-10-30T10:09:12.739Z,22.20
2022-10-30T10:11:57.017Z,20.88
2022-10-30T10:14:29.126Z,18.80
2022-10-30T10:16:58.550Z,17.98
2022-10-30T10:19:44.181Z,18.83
2022-10-30T10:22:24.232Z,16.70
2022-10-30T10:24:51.623Z,17.95
2022-10-30T10:27:40.690Z,15.55
2022-10-30T10:30:24.353Z,16.67
2022-10-30T10:33:25.045Z,18.00
2022-10-30T10:36:15.717Z,20.02
2022-10-30T10:39:10.108Z,15.82
2022-10-30T10:41:57.022Z,18.15
2022-10-30T10:44:50.666Z,15.70
2022-10-30T10:47:32.135Z,16.63
2022-10-30T10:50:28.498Z,16.52
2022-10-30T10:53:15.179Z,14.75
2022-10-30T10:55:46.297Z,15.23
2022-10-30T10:58:24.282Z,12.60
2022-10-30T11:00:52.318Z,18.65
2022-10-30T11:03:29.855Z,18.40
2022-10-30T11:06:11.646Z,18.58
2022-10-30T11:08:38.816Z,17.13
2022-10-30T11:11:07.425Z,20.23
2022-10-30T11:13:39.341Z,14.77
2022-10-30T11:16:27.781Z,19.15
2022-10-30T11:19:01.396Z,18.40
2022-10-30T11:21:31.857Z,20.63
2022-10-30T11:23:58.593Z,15.75
2022-10-30T11:26:28.381Z,18.83
2022-10-30T11:29:15.198Z,13.60
2022-10-30T11:31:43.591Z,20.83
2022-10-30T11:34:20.174Z,17.25
2022-10-30T11:36:51.591Z,24.90
2022-10-30T11:39:21.619Z,16.17
2022-10-30T11:42:06.297Z,17.90
2022-10-30T11:44:51.805Z,15.25
2022-10-30T11:47:27.904Z,16.33
2022-10-30T11:49:58.138Z,17.75
2022-10-30T11:52:26.439Z,18.70
2022-10-30T11:55:28.748Z,19.30
2022-10-30T11:57:58.192Z,14.77
2022-10-30T12:00:28.350Z,16.50
2022-10-30T12:02:57.459Z,15.52
2022-10-30T12:05:27.608Z,19.02
2022-10-30T12:08:09.284Z,21.40
2022-10-30T12:10:47.090Z,15.85
2022-10-30T12:13:19.910Z,16.45
2022-10-30T12:15:50.616Z,17.25
2022-10-30T12:18:22.408Z,16.02
2022-10-30T12:20:56.251Z,17.23
2022-10-30T12:23:25.895Z,19.95
2022-10-30T12:26:14.634Z,15.30
2022-10-30T12:28:59.032Z,18.00
2022-10-30T12:31:35.609Z,16.70
2022-10-30T12:34:31.403Z,17.23
2022-10-30T12:37:21.809Z,22.05
2022-10-30T12:40:13.650Z,16.65
2022-10-30T12:45:46.859Z,14.35
2022-10-30T12:48:37.514Z,16.17
2022-10-30T12:51:23.919Z,18.92
2022-10-30T12:54:07.537Z,16.92
2022-10-30T12:56:38.847Z,17.10
2022-10-30T12:59:32.838Z,16.30
2022-10-30T13:02:40.788Z,18.27
2022-10-30T13:05:19.866Z,15.52
2022-10-30T13:07:54.917Z,17.88
2022-10-30T13:10:34.154Z,20.38
2022-10-30T13:15:52.631Z,17.95
2022-10-30T13:18:21.649Z,16.80
2022-10-30T13:21:03.786Z,22.67
2022-10-30T13:23:52.077Z,16.45
2022-10-30T13:26:40.928Z,38.58
2022-10-30T13:29:37.480Z,20.27
2022-10-30T13:32:25.509Z,16.60
2022-10-30T13:35:17.829Z,22.13
2022-10-30T13:38:03.259Z,12.70
2022-10-30T13:43:26.906Z,19.38
2022-10-30T13:46:08.772Z,15.48
2022-10-30T13:48:50.088Z,20.00
2022-10-30T13:51:22.989Z,20.75
2022-10-30T13:56:21.834Z,18.17
2022-10-30T13:59:03.418Z,19.42
2022-10-30T14:01:39.159Z,21.20
2022-10-30T14:04:14.370Z,16.08
2022-10-30T14:07:16.747Z,20.77
2022-10-30T14:10:04.848Z,18.45
2022-10-30T14:12:57.082Z,15.60
2022-10-30T14:15:29.769Z,19.75
2022-10-30T14:18:11.589Z,18.30
2022-10-30T14:20:42.518Z,14.80
2022-10-30T14:23:14.503Z,20.25
2022-10-30T14:25:42.913Z,18.27
2022-10-30T14:28:21.903Z,17.88
2022-10-30T14:31:01.061Z,20.17
2022-10-30T14:36:14.938Z,24.27
2022-10-30T14:38:42.271Z,20.63
2022-10-30T14:41:31.616Z,18.23
2022-10-30T14:44:18.379Z,17.50
2022-10-30T14:47:21.535Z,19.63
2022-10-30T14:49:57.178Z,18.75
2022-10-30T14:52:42.991Z,17.83
2022-10-30T14:55:47.483Z,18.95
2022-10-30T15:00:48.289Z,17.17
2022-10-30T15:03:31.316Z,19.52
2022-10-30T15:06:26.166Z,17.00
2022-10-30T15:09:21.368Z,15.85
2022-10-30T15:12:08.358Z,16.58
2022-10-30T15:14:53.499Z,24.13
2022-10-30T15:17:32.935Z,17.58
2022-10-30T15:20:02.475Z,20.88
2022-10-30T15:22:30.168Z,16.75
2022-10-30T15:24:56.976Z,18.88
2022-10-30T15:27:25.616Z,17.50
2022-10-30T15:29:56.184Z,16.67
2022-10-30T15:32:24.863Z,21.60
2022-10-30T15:35:00.110Z,12.90
2022-10-30T15:37:27.738Z,18.15
2022-10-30T15:40:17.496Z,20.33
2022-10-30T15:42:46.101Z,19.30
2022-10-30T15:45:22.803Z,24.67
2022-10-30T15:47:58.592Z,21.58
2022-10-30T15:50:25.781Z,17.00
2022-10-30T15:52:53.911Z,19.00
2022-10-30T15:55:27.767Z,21.55
2022-10-30T15:58:03.834Z,21.80
2022-10-30T16:00:34.880Z,19.40
2022-10-30T16:03:17.202Z,23.50
2022-10-30T16:05:44.146Z,17.75
2022-10-30T16:08:22.334Z,21.67
2022-10-30T16:13:25.006Z,20.75
2022-10-30T16:15:51.788Z,19.33
2022-10-30T16:18:30.680Z,17.17
2022-10-30T16:21:08.104Z,21.55
2022-10-30T16:23:40.803Z,20.88
2022-10-30T16:26:19.634Z,23.45
2022-10-30T16:28:47.946Z,19.20
2022-10-30T16:31:16.028Z,20.58
2022-10-30T16:33:44.508Z,18.73
2022-10-30T16:36:17.192Z,17.42
2022-10-30T16:38:47.506Z,19.02
2022-10-30T16:41:14.930Z,15.75
2022-10-30T16:43:44.601Z,14.70
2022-10-30T16:46:14.130Z,18.42
2022-10-30T16:48:47.419Z,19.45
2022-10-30T16:51:17.111Z,18.40
2022-10-30T16:53:51.878Z,16.42
2022-10-30T16:56:29.628Z,15.30
2022-10-30T16:59:27.387Z,14.60
2022-10-30T17:01:57.331Z,15.70
2022-10-30T17:04:24.948Z,17.05
2022-10-30T17:07:07.880Z,16.58
2022-10-30T17:09:37.227Z,20.45
2022-10-30T17:12:13.125Z,20.42
2022-10-30T17:14:53.106Z,18.65
2022-10-30T17:17:34.438Z,16.73
2022-10-30T17:20:05.874Z,15.02
2022-10-30T17:22:33.392Z,15.68
2022-10-30T17:25:00.343Z,14.88
2022-10-30T17:27:46.253Z,13.52
2022-10-30T17:30:31.822Z,14.05
2022-10-30T17:32:59.105Z,15.50
2022-10-30T17:35:25.943Z,18.23
2022-10-30T17:40:20.244Z,16.30
2022-10-30T17:42:50.037Z,16.83
2022-10-30T17:45:17.288Z,17.55
2022-10-30T17:47:44.310Z,15.57
2022-10-30T17:50:11.986Z,16.48
2022-10-30T17:52:38.950Z,15.90
2022-10-30T17:55:28.912Z,32.30
2022-10-30T17:57:55.616Z,23.13
2022-10-30T18:02:49.074Z,16.35
2022-10-30T18:05:21.659Z,15.18
2022-10-30T18:10:19.982Z,16.13
2022-10-30T18:12:47.035Z,20.05
2022-10-30T18:15:36.438Z,16.60
2022-10-30T18:18:04.014Z,17.60
2022-10-30T18:20:31.650Z,13.70
2022-10-30T18:22:58.748Z,15.32
2022-10-30T18:25:30.549Z,14.02
2022-10-30T18:27:57.265Z,18.83
2022-10-30T18:32:50.866Z,16.77
2022-10-30T18:35:32.704Z,19.73
2022-10-30T18:37:59.783Z,9.60
2022-10-30T18:40:26.564Z,16.00
2022-10-30T18:42:53.480Z,19.88
2022-10-30T18:45:29.221Z,14.40
2022-10-30T18:47:56.732Z,18.20
2022-10-30T18:50:24.817Z,16.92
2022-10-30T18:52:51.525Z,15.07
2022-10-30T18:57:47.556Z,13.77
2022-10-30T19:00:16.181Z,12.57
2022-10-30T19:02:43.009Z,13.45
2022-10-30T19:05:20.472Z,22.92
2022-10-30T19:07:47.302Z,18.60
2022-10-30T19:10:14.309Z,19.42
2022-10-30T19:15:33.771Z,14.88
2022-10-30T19:18:02.105Z,14.48
2022-10-30T19:20:50.560Z,10.63
2022-10-30T19:23:22.632Z,13.15
2022-10-30T19:25:50.569Z,11.68
2022-10-30T19:28:19.245Z,14.52
2022-10-30T19:30:50.182Z,15.20
2022-10-30T19:33:18.431Z,13.60
2022-10-30T19:35:45.383Z,14.15
2022-10-30T19:38:13.246Z,12.13
2022-10-30T19:40:40.871Z,14.70
2022-10-30T19:43:07.602Z,11.80
2022-10-30T19:48:04.450Z,12.18
2022-10-30T19:50:34.286Z,16.70
2022-10-30T19:53:02.342Z,14.93
2022-10-30T19:55:31.901Z,15.60
2022-10-30T19:58:00.075Z,13.75
2022-10-30T20:00:30.255Z,13.98
2022-10-30T20:02:58.862Z,15.43
2022-10-30T20:05:37.541Z,14.40
2022-10-30T20:08:13.635Z,17.45
2022-10-30T20:10:51.862Z,17.65
2022-10-30T20:13:19.117Z,10.52
2022-10-30T20:15:45.857Z,13.40
2022-10-30T20:18:20.673Z,14.80
2022-10-30T20:20:50.001Z,9.88
2022-10-30T20:23:17.210Z,12.48
2022-10-30T20:25:44.789Z,9.00
2022-10-30T20:28:30.162Z,10.95
2022-10-30T20:30:57.373Z,8.88
2022-10-30T20:33:25.650Z,12.88
2022-10-30T20:35:54.595Z,11.63
2022-10-30T20:38:28.918Z,12.05
2022-10-30T20:40:56.538Z,12.02
2022-10-30T20:43:32.286Z,12.07
2022-10-30T20:46:00.162Z,10.57
2022-10-30T20:48:27.776Z,9.48
2022-10-30T20:50:59.044Z,10.15
2022-10-30T20:53:26.941Z,11.90
2022-10-30T20:55:53.635Z,13.52
2022-10-30T20:58:20.658Z,10.30
2022-10-30T21:00:48.151Z,8.85
2022-10-30T21:03:15.654Z,12.43
2022-10-30T21:05:45.400Z,13.38
2022-10-30T21:08:15.417Z,12.10
2022-10-30T21:10:42.553Z,13.18
2022-10-30T21:13:11.036Z,10.05
2022-10-30T21:15:44.787Z,9.35
2022-10-30T21:18:15.269Z,11.07
2022-10-30T21:20:42.053Z,18.15
2022-10-30T21:23:09.324Z,10.57
2022-10-30T21:25:36.208Z,13.43
2022-10-30T21:30:31.155Z,10.82
2022-10-30T21:32:59.061Z,9.82
2022-10-30T21:35:26.720Z,9.80
2022-10-30T21:37:53.413Z,9.35
2022-10-30T21:40:20.526Z,16.30
2022-10-30T21:42:48.266Z,7.88
2022-10-30T21:45:15.005Z,7.53
2022-10-30T21:47:41.614Z,8.00
2022-10-30T21:50:12.214Z,12.20
2022-10-30T21:52:40.134Z,9.00
2022-10-30T21:55:07.424Z,10.25
2022-10-30T21:57:34.595Z,11.68
2022-10-30T22:00:05.488Z,9.57
2022-10-30T22:02:35.157Z,10.07
2022-10-30T22:05:01.894Z,11.45
2022-10-30T22:07:28.556Z,13.77
2022-10-30T22:09:55.205Z,9.00
2022-10-30T22:12:21.825Z,8.40
2022-10-30T22:14:48.464Z,12.32
2022-10-30T22:17:15.095Z,9.40
2022-10-30T22:19:41.786Z,12.48
2022-10-30T22:22:09.050Z,11.25
2022-10-30T22:24:36.128Z,8.63
2022-10-30T22:27:02.980Z,12.10
2022-10-30T22:31:56.689Z,11.80
2022-10-30T22:34:23.321Z,11.60
2022-10-30T22:36:50.047Z,9.73
2022-10-30T22:39:16.697Z,8.25
2022-10-30T22:41:43.419Z,10.25
2022-10-30T22:44:17.208Z,13.40
2022-10-30T22:46:43.942Z,11.05
2022-10-30T22:49:10.659Z,11.82
2022-10-30T22:51:38.775Z,14.20
2022-10-30T22:54:09.473Z,14.10
2022-10-30T22:56:36.781Z,14.77
2022-10-30T22:59:09.944Z,12.68
2022-10-30T23:01:37.921Z,11.00
2022-10-30T23:04:06.851Z,9.25
2022-10-30T23:06:34.671Z,18.42
2022-10-30T23:09:04.074Z,9.40
2022-10-30T23:11:30.893Z,9.95
2022-10-30T23:13:57.669Z,15.45
2022-10-30T23:18:55.751Z,17.45
2022-10-30T23:21:24.087Z,16.75
2022-10-30T23:23:51.656Z,14.23
2022-10-30T23:26:38.598Z,14.30
2022-10-30T23:29:05.358Z,19.77
2022-10-30T23:34:06.339Z,14.88
2022-10-30T23:36:33.042Z,14.55
2022-10-30T23:39:05.998Z,12.90
2022-10-30T23:41:34.355Z,12.05
2022-10-30T23:44:04.915Z,13.82
2022-10-30T23:46:33.002Z,14.07
2022-10-30T23:49:00.127Z,13.68
2022-10-30T23:51:26.897Z,14.18
2022-10-30T23:53:54.137Z,19.85
2022-10-30T23:56:21.385Z,14.13
2022-10-30T23:58:50.812Z,15.63
